createdAt,value
2019-04-05T00:00:39.179Z,81.71
2019-04-05T00:02:14.285Z,82.11
2019-04-05T00:03:48.986Z,81.70
2019-04-05T00:05:23.689Z,81.97
2019-04-05T00:06:58.384Z,82.18
2019-04-05T00:08:33.044Z,82.33
2019-04-05T00:10:08.460Z,82.17
2019-04-05T00:11:43.125Z,82.36
2019-04-05T00:13:17.765Z,82.85
2019-04-05T00:14:52.462Z,82.09
2019-04-05T00:16:27.258Z,82.40
2019-04-05T00:18:01.893Z,82.67
2019-04-05T00:19:36.550Z,82.58
2019-04-05T00:21:11.299Z,82.13
2019-04-05T00:22:45.963Z,82.50
2019-04-05T00:24:20.644Z,82.29
2019-04-05T00:25:55.299Z,82.39
2019-04-05T00:27:29.973Z,82.78
2019-04-05T00:29:05.722Z,82.65
2019-04-05T00:30:40.398Z,82.64
2019-04-05T00:32:15.082Z,83.04
2019-04-05T00:33:49.709Z,83.01
2019-04-05T00:35:24.378Z,82.84
2019-04-05T00:36:59.024Z,83.04
2019-04-05T00:38:33.680Z,82.66
2019-04-05T00:40:09.715Z,82.78
2019-04-05T00:41:44.376Z,83.33
2019-04-05T00:43:19.017Z,82.52
2019-04-05T00:44:53.752Z,82.42
2019-04-05T00:46:28.446Z,82.66
2019-04-05T00:48:03.194Z,82.48
2019-04-05T00:49:38.928Z,82.73
2019-04-05T00:51:14.829Z,83.09
2019-04-05T00:52:49.554Z,83.05
2019-04-05T00:54:24.314Z,83.45
2019-04-05T00:55:59.037Z,83.59
2019-04-05T00:57:33.725Z,83.08
2019-04-05T00:59:08.368Z,83.06
2019-04-05T01:00:43.010Z,83.34
2019-04-05T01:02:17.784Z,83.63
2019-04-05T01:03:52.400Z,83.45
2019-04-05T01:05:27.138Z,83.59
2019-04-05T01:07:01.933Z,83.91
2019-04-05T01:08:36.664Z,83.35
2019-04-05T01:10:11.892Z,83.74
2019-04-05T01:11:46.617Z,83.87
2019-04-05T01:13:22.219Z,83.18
2019-04-05T01:14:57.045Z,83.51
2019-04-05T01:16:31.799Z,83.62
2019-04-05T01:18:06.569Z,82.99
2019-04-05T01:19:41.883Z,83.00
2019-04-05T01:21:19.966Z,83.19
2019-04-05T01:22:55.197Z,83.27
2019-04-05T01:24:30.045Z,83.28
2019-04-05T01:26:05.391Z,83.29
2019-04-05T01:27:41.240Z,82.88
2019-04-05T01:46:19.174Z,83.34
2019-04-05T01:47:53.912Z,83.73
2019-04-05T01:49:28.551Z,83.47
2019-04-05T01:51:03.234Z,83.64
2019-04-05T01:52:38.048Z,83.16
2019-04-05T01:54:12.774Z,83.57
2019-04-05T01:55:47.443Z,83.34
2019-04-05T01:57:22.131Z,83.50
2019-04-05T01:58:56.811Z,83.84
2019-04-05T02:00:31.502Z,83.25
2019-04-05T02:02:06.362Z,83.11
2019-04-05T02:03:41.054Z,83.27
2019-04-05T02:05:16.137Z,83.54
2019-04-05T02:06:50.848Z,83.03
2019-04-05T02:08:25.822Z,83.96
2019-04-05T02:10:00.538Z,83.08
2019-04-05T02:11:36.354Z,83.32
2019-04-05T02:13:11.096Z,83.72
2019-04-05T02:14:46.883Z,83.40
2019-04-05T02:16:21.669Z,83.32
2019-04-05T02:17:56.933Z,83.24
2019-04-05T02:19:31.658Z,83.17
2019-04-05T02:21:07.372Z,82.99
2019-04-05T02:22:42.195Z,83.87
2019-04-05T02:24:16.896Z,83.47
2019-04-05T02:25:51.609Z,83.76
2019-04-05T02:27:26.235Z,84.18
2019-04-05T02:29:00.953Z,83.83
2019-04-05T02:30:35.821Z,83.80
2019-04-05T02:32:10.549Z,83.35
2019-04-05T02:33:45.222Z,83.69
2019-04-05T02:35:19.869Z,83.66
2019-04-05T02:36:54.510Z,84.07
2019-04-05T02:38:29.220Z,83.75
2019-04-05T02:40:04.089Z,83.07
2019-04-05T02:41:39.703Z,83.39
2019-04-05T02:43:15.906Z,83.97
2019-04-05T02:44:51.653Z,83.34
2019-04-05T02:46:26.991Z,83.48
2019-04-05T02:48:04.622Z,83.60
2019-04-05T02:49:39.657Z,84.09
2019-04-05T02:51:14.969Z,83.68
2019-04-05T02:52:50.681Z,83.78
2019-04-05T02:54:25.681Z,83.60
2019-04-05T02:56:03.048Z,84.02
2019-04-05T02:57:36.942Z,83.36
2019-04-05T02:59:12.495Z,83.93
2019-04-05T03:00:47.506Z,83.68
2019-04-05T03:02:22.328Z,83.56
2019-04-05T03:03:57.053Z,83.27
2019-04-05T03:05:32.504Z,83.64
2019-04-05T03:07:07.445Z,83.37
2019-04-05T03:08:43.348Z,82.70
2019-04-05T03:10:45.714Z,82.82
2019-04-05T03:12:20.592Z,83.14
2019-04-05T03:13:57.357Z,83.51
2019-04-05T03:15:32.076Z,83.11
2019-04-05T03:17:07.404Z,83.33
2019-04-05T03:18:45.235Z,83.76
2019-04-05T03:20:20.103Z,83.88
2019-04-05T03:21:59.957Z,83.31
2019-04-05T03:23:36.740Z,83.18
2019-04-05T03:25:11.771Z,83.66
2019-04-05T03:26:50.825Z,83.30
2019-04-05T03:28:26.037Z,83.33
2019-04-05T03:30:00.983Z,83.59
2019-04-05T03:31:35.728Z,83.06
2019-04-05T03:33:10.351Z,83.71
2019-04-05T03:34:45.091Z,83.73
2019-04-05T03:36:20.094Z,83.68
2019-04-05T03:37:54.830Z,83.75
2019-04-05T03:39:29.481Z,83.68
2019-04-05T03:41:05.515Z,84.32
2019-04-05T03:42:40.290Z,83.25
2019-04-05T03:44:14.965Z,82.65
2019-04-05T03:45:49.983Z,83.94
2019-04-05T03:47:24.833Z,83.80
2019-04-05T03:48:59.539Z,84.02
2019-04-05T03:50:34.238Z,83.47
2019-04-05T03:52:08.975Z,83.56
2019-04-05T03:53:43.694Z,83.85
2019-04-05T03:55:18.526Z,83.93
2019-04-05T03:56:53.458Z,84.55
2019-04-05T03:58:28.076Z,84.12
2019-04-05T04:00:02.826Z,83.64
2019-04-05T04:01:38.282Z,84.26
2019-04-05T04:03:13.182Z,84.09
2019-04-05T04:04:47.843Z,83.66
2019-04-05T04:06:22.625Z,83.67
2019-04-05T04:07:57.404Z,84.57
2019-04-05T04:09:32.209Z,84.22
2019-04-05T04:11:07.838Z,84.40
2019-04-05T04:12:42.576Z,84.13
2019-04-05T04:14:17.298Z,83.82
2019-04-05T04:15:53.227Z,84.70
2019-04-05T04:17:27.848Z,83.93
2019-04-05T04:19:02.846Z,84.42
2019-04-05T04:20:40.823Z,84.45
2019-04-05T04:22:22.999Z,84.47
2019-04-05T04:23:57.696Z,84.76
2019-04-05T04:25:32.545Z,84.59
2019-04-05T04:27:07.287Z,84.93
2019-04-05T04:28:44.950Z,85.05
2019-04-05T04:30:19.680Z,84.67
2019-04-05T04:31:54.620Z,85.24
2019-04-05T04:33:29.535Z,84.76
2019-04-05T04:35:04.939Z,85.28
2019-04-05T04:36:39.625Z,84.60
2019-04-05T04:38:14.464Z,84.74
2019-04-05T04:39:50.746Z,84.49
2019-04-05T04:41:25.523Z,85.34
2019-04-05T04:43:01.325Z,85.21
2019-04-05T04:44:37.762Z,84.79
2019-04-05T04:46:13.104Z,85.00
2019-04-05T04:47:47.923Z,84.79
2019-04-05T04:49:22.852Z,84.07
2019-04-05T04:50:57.743Z,84.04
2019-04-05T04:52:33.045Z,84.34
2019-04-05T04:54:07.796Z,84.74
2019-04-05T04:55:42.719Z,84.45
2019-04-05T04:57:17.639Z,83.70
2019-04-05T04:58:52.300Z,83.91
2019-04-05T05:00:27.544Z,84.15
2019-04-05T05:02:02.254Z,84.64
2019-04-05T05:03:37.063Z,84.17
2019-04-05T05:05:12.602Z,84.30
2019-04-05T05:06:47.413Z,84.26
2019-04-05T05:08:22.149Z,84.47
2019-04-05T05:09:57.084Z,83.95
2019-04-05T05:11:32.025Z,84.05
2019-04-05T05:13:06.830Z,83.91
2019-04-05T05:14:42.127Z,84.27
2019-04-05T05:16:17.232Z,84.24
2019-04-05T05:17:58.461Z,83.75
2019-04-05T05:19:28.756Z,83.65
2019-04-05T05:21:03.419Z,83.99
2019-04-05T05:22:38.370Z,83.53
2019-04-05T05:24:13.207Z,84.13
2019-04-05T05:25:47.922Z,83.71
2019-04-05T05:27:22.631Z,84.16
2019-04-05T05:28:57.390Z,83.44
2019-04-05T05:30:32.075Z,84.09
2019-04-05T05:32:09.569Z,83.51
2019-04-05T05:33:43.228Z,83.64
2019-04-05T05:35:17.894Z,84.11
2019-04-05T05:36:52.743Z,83.65
2019-04-05T05:38:27.576Z,84.13
2019-04-05T05:40:02.363Z,83.59
2019-04-05T05:41:37.107Z,83.73
2019-04-05T05:43:11.862Z,83.17
2019-04-05T05:44:46.578Z,83.23
2019-04-05T05:46:21.241Z,83.30
2019-04-05T05:47:55.964Z,83.50
2019-04-05T05:49:30.677Z,83.39
2019-04-05T05:51:05.398Z,83.73
2019-04-05T05:52:40.226Z,83.44
2019-04-05T05:54:14.957Z,83.65
2019-04-05T05:55:49.771Z,83.60
2019-04-05T05:57:24.497Z,83.46
2019-04-05T05:58:59.645Z,84.16
2019-04-05T06:00:35.271Z,83.35
2019-04-05T06:02:09.927Z,83.02
2019-04-05T06:03:44.575Z,83.53
2019-04-05T06:05:19.453Z,83.42
2019-04-05T06:06:54.171Z,83.69
2019-04-05T06:08:29.988Z,83.80
2019-04-05T06:10:05.349Z,83.67
2019-04-05T06:11:40.019Z,83.40
2019-04-05T06:13:14.710Z,83.28
2019-04-05T06:14:49.460Z,83.49
2019-04-05T06:16:24.133Z,83.13
2019-04-05T06:18:04.514Z,83.42
2019-04-05T06:19:35.446Z,83.71
2019-04-05T06:21:10.104Z,83.89
2019-04-05T06:22:47.503Z,83.76
2019-04-05T06:24:21.165Z,82.98
2019-04-05T06:25:55.813Z,83.36
2019-04-05T06:27:30.458Z,82.84
2019-04-05T06:29:05.185Z,82.02
2019-04-05T06:30:39.856Z,82.70
2019-04-05T06:32:14.518Z,83.28
2019-04-05T06:33:49.165Z,83.34
2019-04-05T06:35:23.888Z,83.43
2019-04-05T06:36:58.534Z,83.30
2019-04-05T06:38:33.156Z,84.04
2019-04-05T06:40:07.895Z,83.91
2019-04-05T06:41:42.615Z,83.14
2019-04-05T06:43:17.334Z,83.21
2019-04-05T06:44:52.055Z,83.86
2019-04-05T06:46:26.700Z,82.92
2019-04-05T06:48:01.338Z,83.27
2019-04-05T06:49:36.963Z,83.24
2019-04-05T06:51:11.632Z,82.98
2019-04-05T06:52:47.280Z,83.02
2019-04-05T06:54:21.935Z,83.21
2019-04-05T06:55:59.579Z,83.92
2019-04-05T06:57:32.917Z,83.83
2019-04-05T06:59:07.557Z,83.04
2019-04-05T07:00:56.105Z,83.28
2019-04-05T07:02:18.772Z,83.42
2019-04-05T07:03:55.225Z,82.98
2019-04-05T07:05:30.102Z,83.07
2019-04-05T07:07:04.864Z,83.40
2019-04-05T07:08:39.537Z,83.42
2019-04-05T07:10:14.311Z,83.19
2019-04-05T07:11:49.109Z,83.90
2019-04-05T07:13:23.784Z,83.23
2019-04-05T07:14:58.424Z,83.62
2019-04-05T07:16:33.487Z,83.92
2019-04-05T07:18:08.211Z,83.52
2019-04-05T07:19:42.864Z,83.26
2019-04-05T07:21:20.349Z,83.51
2019-04-05T07:22:54.989Z,82.94
2019-04-05T07:24:29.661Z,83.50
2019-04-05T07:26:04.339Z,83.50
2019-04-05T07:27:39.023Z,83.36
2019-04-05T07:29:13.664Z,83.22
2019-04-05T07:30:48.311Z,83.49
2019-04-05T07:32:23.001Z,83.79
2019-04-05T07:33:57.655Z,82.71
2019-04-05T07:35:33.963Z,82.93
2019-04-05T07:37:08.892Z,82.10
2019-04-05T07:38:43.600Z,82.96
2019-04-05T07:40:19.179Z,82.98
2019-04-05T07:41:53.831Z,82.86
2019-04-05T07:43:28.493Z,83.23
2019-04-05T07:45:03.294Z,83.24
2019-04-05T07:46:39.008Z,83.50
2019-04-05T07:48:13.642Z,82.80
2019-04-05T07:49:48.296Z,81.78
2019-04-05T07:51:23.012Z,81.97
2019-04-05T07:52:57.744Z,81.83
2019-04-05T07:54:32.453Z,81.85
2019-04-05T07:56:07.104Z,82.26
2019-04-05T07:57:42.790Z,81.70
2019-04-05T07:59:17.446Z,81.42
2019-04-05T08:00:53.732Z,83.12
2019-04-05T08:02:28.457Z,82.32
2019-04-05T08:04:03.194Z,82.34
2019-04-05T08:05:38.186Z,81.58
2019-04-05T08:07:13.752Z,82.16
2019-04-05T08:09:09.299Z,81.63
2019-04-05T08:10:44.386Z,81.95
2019-04-05T08:12:19.401Z,81.45
2019-04-05T08:13:55.481Z,81.43
2019-04-05T08:15:30.402Z,81.98
2019-04-05T08:17:05.354Z,82.17
2019-04-05T08:18:40.026Z,81.52
2019-04-05T08:20:14.759Z,82.08
2019-04-05T08:21:49.448Z,82.09
2019-04-05T08:23:24.101Z,81.75
2019-04-05T08:24:58.822Z,81.47
2019-04-05T08:26:33.773Z,81.94
2019-04-05T08:28:08.427Z,81.91
2019-04-05T08:29:43.119Z,81.95
2019-04-05T08:31:17.781Z,80.87
2019-04-05T08:32:52.510Z,81.05
2019-04-05T08:34:27.146Z,80.97
2019-04-05T08:36:01.804Z,81.41
2019-04-05T08:37:36.527Z,81.12
2019-04-05T08:39:11.258Z,80.79
2019-04-05T08:40:46.000Z,81.48
2019-04-05T08:42:20.697Z,81.13
2019-04-05T08:43:55.371Z,80.71
2019-04-05T08:45:30.098Z,80.30
2019-04-05T08:47:04.913Z,80.01
2019-04-05T08:48:39.564Z,80.69
2019-04-05T08:50:14.475Z,80.54
2019-04-05T08:51:49.188Z,81.36
2019-04-05T08:53:23.821Z,80.41
2019-04-05T08:54:58.482Z,80.43
2019-04-05T08:56:33.166Z,80.46
2019-04-05T08:58:07.817Z,80.63
2019-04-05T08:59:42.485Z,80.37
2019-04-05T09:01:17.309Z,80.11
2019-04-05T09:02:52.228Z,80.31
2019-04-05T09:04:26.918Z,79.24
2019-04-05T09:06:01.680Z,79.90
2019-04-05T09:07:36.339Z,79.96
2019-04-05T09:09:10.989Z,80.37
2019-04-05T09:10:45.665Z,80.09
2019-04-05T09:12:20.311Z,80.40
2019-04-05T09:13:55.024Z,80.41
2019-04-05T09:15:29.662Z,79.98
2019-04-05T09:17:04.401Z,79.47
2019-04-05T09:18:39.032Z,80.01
2019-04-05T09:20:13.829Z,80.48
2019-04-05T09:21:48.599Z,79.61
2019-04-05T09:23:23.295Z,78.99
2019-04-05T09:24:57.978Z,79.25
2019-04-05T09:26:32.653Z,79.82
2019-04-05T09:28:07.303Z,79.63
2019-04-05T09:29:42.125Z,78.59
2019-04-05T09:31:16.791Z,78.24
2019-04-05T09:32:51.582Z,78.14
2019-04-05T09:34:26.228Z,77.87
2019-04-05T09:36:00.905Z,78.18
2019-04-05T09:37:35.583Z,78.54
2019-04-05T09:39:15.263Z,76.72
2019-04-05T09:40:47.884Z,77.87
2019-04-05T09:42:22.599Z,76.93
2019-04-05T09:43:57.308Z,77.43
2019-04-05T09:45:31.956Z,77.02
2019-04-05T09:47:06.671Z,76.63
2019-04-05T09:48:41.318Z,76.71
2019-04-05T09:50:16.219Z,77.38
2019-04-05T09:51:51.055Z,77.88
2019-04-05T09:53:25.818Z,77.88
2019-04-05T09:55:00.481Z,76.82
2019-04-05T09:56:35.155Z,76.13
2019-04-05T09:58:10.359Z,77.36
2019-04-05T09:59:45.232Z,77.01
2019-04-05T10:01:19.983Z,76.15
2019-04-05T10:02:54.747Z,76.68
2019-04-05T10:04:31.199Z,77.34
2019-04-05T10:06:05.875Z,77.70
2019-04-05T10:07:53.815Z,77.35
2019-04-05T10:09:16.989Z,77.62
2019-04-05T10:10:51.683Z,77.20
2019-04-05T10:12:27.728Z,76.43
2019-04-05T10:14:02.388Z,76.61
2019-04-05T10:15:37.024Z,76.82
2019-04-05T10:17:12.122Z,77.13
2019-04-05T10:18:46.790Z,76.71
2019-04-05T10:20:21.542Z,76.06
2019-04-05T10:21:56.178Z,76.80
2019-04-05T10:23:30.865Z,76.47
2019-04-05T10:25:06.004Z,76.69
2019-04-05T10:26:40.668Z,76.63
2019-04-05T10:28:15.404Z,75.70
2019-04-05T10:29:50.045Z,76.22
2019-04-05T10:31:24.844Z,75.67
2019-04-05T10:32:59.530Z,76.11
2019-04-05T10:34:34.183Z,76.72
2019-04-05T10:36:08.824Z,76.47
2019-04-05T10:37:43.483Z,76.28
2019-04-05T10:39:18.166Z,75.46
2019-04-05T10:40:55.554Z,75.80
2019-04-05T10:42:33.848Z,75.24
2019-04-05T10:44:11.753Z,75.68
2019-04-05T10:45:46.909Z,74.17
2019-04-05T10:47:21.790Z,74.88
2019-04-05T10:48:56.528Z,75.12
2019-04-05T10:50:32.189Z,76.70
2019-04-05T10:52:06.835Z,75.90
2019-04-05T10:53:41.516Z,74.78
2019-04-05T10:55:16.265Z,74.58
2019-04-05T10:56:50.913Z,74.54
2019-04-05T10:58:25.662Z,75.90
2019-04-05T11:00:00.317Z,76.03
2019-04-05T11:01:35.034Z,75.98
2019-04-05T11:03:09.724Z,75.67
2019-04-05T11:04:44.477Z,75.92
2019-04-05T11:06:19.129Z,76.41
2019-04-05T11:07:53.777Z,76.34
2019-04-05T11:09:28.450Z,75.90
2019-04-05T11:11:03.126Z,76.05
2019-04-05T11:12:37.900Z,75.89
2019-04-05T11:14:13.922Z,75.87
2019-04-05T11:15:49.067Z,76.35
2019-04-05T11:17:23.731Z,75.77
2019-04-05T11:19:01.887Z,75.65
2019-04-05T11:20:34.736Z,75.80
2019-04-05T11:22:09.364Z,75.99
2019-04-05T11:23:44.022Z,77.26
2019-04-05T11:25:20.667Z,76.75
2019-04-05T11:26:55.261Z,76.06
2019-04-05T11:28:31.194Z,76.96
2019-04-05T11:30:06.650Z,76.35
2019-04-05T11:31:41.333Z,76.34
2019-04-05T11:33:19.369Z,75.89
2019-04-05T11:34:52.683Z,76.89
2019-04-05T11:36:27.506Z,76.82
2019-04-05T11:38:02.228Z,77.14
2019-04-05T11:39:36.950Z,77.02
2019-04-05T11:41:11.722Z,76.93
2019-04-05T11:42:46.881Z,76.78
2019-04-05T11:44:23.060Z,75.27
2019-04-05T11:45:57.894Z,75.86
2019-04-05T11:47:32.976Z,76.66
2019-04-05T11:49:07.696Z,76.82
2019-04-05T11:50:42.414Z,76.68
2019-04-05T11:52:17.080Z,77.18
2019-04-05T11:53:51.772Z,77.46
2019-04-05T11:55:26.436Z,77.04
2019-04-05T11:57:01.193Z,76.63
2019-04-05T11:58:35.839Z,76.49
2019-04-05T12:00:15.004Z,75.89
2019-04-05T12:01:56.317Z,76.99
2019-04-05T12:03:31.018Z,76.18
2019-04-05T12:05:06.265Z,76.56
2019-04-05T12:06:40.902Z,76.39
2019-04-05T12:08:15.552Z,75.49
2019-04-05T12:09:50.299Z,77.25
2019-04-05T12:11:24.951Z,76.60
2019-04-05T12:12:59.611Z,76.22
2019-04-05T12:14:36.377Z,75.81
2019-04-05T12:16:11.244Z,76.50
2019-04-05T12:17:45.968Z,77.30
2019-04-05T12:19:20.605Z,76.85
2019-04-05T12:21:00.001Z,77.09
2019-04-05T12:22:32.638Z,77.32
2019-04-05T12:24:08.243Z,77.39
2019-04-05T12:25:43.086Z,75.90
2019-04-05T12:27:20.607Z,76.07
2019-04-05T12:28:54.184Z,75.83
2019-04-05T12:30:28.917Z,74.89
2019-04-05T12:32:03.958Z,74.12
2019-04-05T12:33:38.588Z,74.69
2019-04-05T12:35:13.315Z,75.51
2019-04-05T12:36:47.962Z,75.29
2019-04-05T12:38:33.023Z,74.42
2019-04-05T12:40:10.244Z,74.81
2019-04-05T12:41:45.614Z,75.91
2019-04-05T12:43:20.267Z,74.96
2019-04-05T12:44:55.790Z,74.63
2019-04-05T12:46:30.516Z,76.09
2019-04-05T12:48:05.278Z,76.45
2019-04-05T12:49:39.917Z,75.41
2019-04-05T12:51:15.566Z,76.35
2019-04-05T12:52:50.871Z,77.11
2019-04-05T12:54:25.510Z,75.71
2019-04-05T12:56:00.151Z,77.07
2019-04-05T12:57:34.864Z,76.89
2019-04-05T12:59:09.531Z,76.87
2019-04-05T13:00:44.261Z,76.66
2019-04-05T13:02:32.746Z,77.42
2019-04-05T13:03:55.302Z,76.68
2019-04-05T13:05:30.939Z,78.48
2019-04-05T13:07:05.718Z,76.78
2019-04-05T13:08:40.400Z,76.99
2019-04-05T13:10:15.050Z,76.62
2019-04-05T13:11:49.778Z,76.77
2019-04-05T13:13:26.655Z,77.35
2019-04-05T13:15:12.347Z,77.21
2019-04-05T13:16:39.755Z,76.65
2019-04-05T13:18:14.478Z,75.49
2019-04-05T13:19:49.122Z,76.43
2019-04-05T13:21:27.363Z,75.69
2019-04-05T13:23:02.473Z,77.20
2019-04-05T13:24:39.567Z,76.48
2019-04-05T13:26:12.929Z,76.57
2019-04-05T13:27:47.679Z,75.11
2019-04-05T13:29:22.350Z,75.52
2019-04-05T13:30:57.030Z,75.87
2019-04-05T13:32:31.674Z,74.71
2019-04-05T13:34:06.621Z,74.06
2019-04-05T13:35:41.339Z,72.86
2019-04-05T13:37:20.446Z,74.16
2019-04-05T13:38:54.889Z,73.39
2019-04-05T13:40:29.619Z,73.38
2019-04-05T13:42:04.963Z,73.34
2019-04-05T13:43:39.627Z,72.88
2019-04-05T13:45:15.547Z,72.65
2019-04-05T13:46:50.222Z,72.65
2019-04-05T13:48:24.892Z,72.69
2019-04-05T13:49:59.540Z,72.22
2019-04-05T13:51:34.203Z,72.74
2019-04-05T13:53:11.131Z,73.23
2019-04-05T13:54:45.260Z,73.48
2019-04-05T13:56:19.908Z,74.90
2019-04-05T13:57:54.847Z,74.42
2019-04-05T13:59:29.634Z,73.77
2019-04-05T14:01:04.481Z,73.77
2019-04-05T14:02:39.263Z,72.99
2019-04-05T14:04:16.864Z,73.82
2019-04-05T14:05:54.061Z,74.17
2019-04-05T14:07:26.697Z,74.17
2019-04-05T14:09:01.677Z,74.17
2019-04-05T14:10:37.660Z,75.08
2019-04-05T14:12:12.340Z,74.41
2019-04-05T14:13:47.081Z,74.81
2019-04-05T14:15:21.875Z,73.87
2019-04-05T14:16:56.539Z,73.65
2019-04-05T14:18:31.190Z,74.19
2019-04-05T14:20:09.281Z,74.97
2019-04-05T14:21:47.633Z,75.49
2019-04-05T14:23:23.048Z,76.23
2019-04-05T14:24:56.887Z,76.32
2019-04-05T14:26:32.443Z,75.14
2019-04-05T14:28:07.099Z,73.81
2019-04-05T14:29:41.779Z,73.81
2019-04-05T14:31:16.485Z,74.17
2019-04-05T14:32:55.283Z,74.07
2019-04-05T14:34:27.495Z,74.07
2019-04-05T14:36:02.157Z,75.04
2019-04-05T14:37:36.824Z,76.72
2019-04-05T14:39:11.746Z,75.48
2019-04-05T14:40:46.599Z,75.73
2019-04-05T14:42:22.293Z,75.17
2019-04-05T14:43:56.957Z,76.27
2019-04-05T14:45:31.634Z,74.72
2019-04-05T14:47:06.324Z,75.70
2019-04-05T14:48:40.995Z,74.92
2019-04-05T14:50:17.331Z,75.54
2019-04-05T14:51:54.885Z,75.06
2019-04-05T14:53:32.002Z,74.34
2019-04-05T14:55:05.012Z,76.25
2019-04-05T14:56:39.666Z,76.76
2019-04-05T14:58:14.319Z,76.61
2019-04-05T14:59:48.985Z,76.96
2019-04-05T15:01:23.947Z,77.49
2019-04-05T15:02:58.594Z,76.42
2019-04-05T15:04:33.322Z,76.42
2019-04-05T15:06:08.031Z,76.86
2019-04-05T15:07:42.702Z,76.30
2019-04-05T15:09:17.455Z,76.99
2019-04-05T15:10:52.118Z,77.29
2019-04-05T15:12:29.148Z,76.37
2019-04-05T15:14:03.226Z,76.37
2019-04-05T15:15:37.886Z,76.15
2019-04-05T15:17:12.624Z,76.45
2019-04-05T15:18:47.421Z,76.10
2019-04-05T15:20:23.052Z,75.53
2019-04-05T15:22:05.544Z,76.16
2019-04-05T15:23:34.012Z,75.88
2019-04-05T15:25:08.999Z,75.53
2019-04-05T15:26:43.726Z,77.28
2019-04-05T15:28:18.445Z,76.97
2019-04-05T15:29:55.350Z,76.84
2019-04-05T15:31:29.540Z,77.26
2019-04-05T15:33:05.614Z,77.31
2019-04-05T15:34:40.276Z,77.94
2019-04-05T15:36:15.891Z,78.47
2019-04-05T15:37:50.569Z,77.95
2019-04-05T15:39:25.223Z,77.15
2019-04-05T15:40:59.890Z,77.14
2019-04-05T15:42:34.628Z,77.69
2019-04-05T15:44:09.303Z,78.59
2019-04-05T15:45:44.172Z,78.82
2019-04-05T15:47:23.149Z,78.32
2019-04-05T15:48:55.877Z,77.60
2019-04-05T15:50:30.534Z,77.67
2019-04-05T15:52:17.787Z,77.94
2019-04-05T15:53:41.816Z,77.73
2019-04-05T15:55:16.534Z,77.30
2019-04-05T15:56:51.303Z,78.05
2019-04-05T15:58:26.398Z,78.80
2019-04-05T16:00:03.800Z,78.64
2019-04-05T16:01:38.455Z,78.63
2019-04-05T16:03:15.449Z,77.61
2019-04-05T16:04:51.238Z,77.25
2019-04-05T16:06:25.969Z,78.32
2019-04-05T16:08:00.698Z,78.46
2019-04-05T16:09:35.336Z,79.25
2019-04-05T16:11:09.974Z,79.06
2019-04-05T16:12:44.700Z,78.66
2019-04-05T16:14:19.360Z,79.11
2019-04-05T16:15:54.040Z,78.82
2019-04-05T16:17:28.788Z,78.89
2019-04-05T16:19:03.484Z,79.93
2019-04-05T16:20:38.459Z,80.29
2019-04-05T16:22:13.125Z,80.11
2019-04-05T16:23:47.773Z,80.25
2019-04-05T16:25:23.449Z,79.56
2019-04-05T16:26:58.370Z,79.12
2019-04-05T16:28:33.236Z,80.72
2019-04-05T16:30:08.470Z,79.42
2019-04-05T16:31:43.137Z,79.71
2019-04-05T16:33:17.799Z,80.21
2019-04-05T16:34:52.461Z,80.09
2019-04-05T16:36:30.796Z,80.17
2019-04-05T16:38:04.148Z,79.80
2019-04-05T16:39:38.843Z,80.76
2019-04-05T16:41:13.530Z,80.51
2019-04-05T16:43:01.497Z,80.10
2019-04-05T16:44:24.560Z,79.45
2019-04-05T16:45:59.555Z,79.85
2019-04-05T16:47:35.236Z,79.33
2019-04-05T16:49:09.876Z,79.95
2019-04-05T16:50:45.466Z,79.45
2019-04-05T16:52:20.118Z,80.59
2019-04-05T16:54:03.923Z,80.47
2019-04-05T16:55:38.652Z,80.24
2019-04-05T16:57:13.289Z,81.18
2019-04-05T16:58:47.977Z,80.07
2019-04-05T17:00:22.997Z,79.84
2019-04-05T17:01:57.684Z,80.60
2019-04-05T17:03:32.329Z,80.89
2019-04-05T17:05:07.441Z,80.36
2019-04-05T17:06:42.217Z,79.87
2019-04-05T17:08:16.868Z,79.42
2019-04-05T17:09:51.799Z,79.63
2019-04-05T17:11:26.466Z,79.47
2019-04-05T17:13:01.284Z,80.46
2019-04-05T17:14:35.923Z,80.65
2019-04-05T17:16:10.574Z,80.68
2019-04-05T17:17:45.512Z,80.49
2019-04-05T17:19:20.198Z,81.37
2019-04-05T17:20:54.845Z,80.85
2019-04-05T17:22:29.701Z,81.24
2019-04-05T17:24:04.566Z,80.45
2019-04-05T17:25:39.619Z,79.73
2019-04-05T17:27:14.570Z,80.48
2019-04-05T17:28:49.219Z,81.05
2019-04-05T17:30:23.951Z,80.88
2019-04-05T17:31:58.667Z,80.00
2019-04-05T17:33:33.314Z,80.13
2019-04-05T17:35:07.991Z,79.56
2019-04-05T17:36:42.644Z,79.87
2019-04-05T17:38:17.328Z,79.91
2019-04-05T17:39:51.990Z,79.49
2019-04-05T17:41:26.763Z,79.68
2019-04-05T17:43:01.416Z,80.31
2019-04-05T17:44:36.061Z,80.51
2019-04-05T17:46:10.805Z,81.91
2019-04-05T17:47:45.466Z,81.23
2019-04-05T17:49:20.199Z,82.09
2019-04-05T17:50:54.983Z,80.82
2019-04-05T17:52:29.732Z,80.71
2019-04-05T17:54:04.544Z,82.07
2019-04-05T17:55:39.548Z,81.45
2019-04-05T17:57:14.682Z,80.90
2019-04-05T17:58:50.247Z,81.08
2019-04-05T18:00:25.013Z,80.95
2019-04-05T18:01:59.801Z,80.64
2019-04-05T18:03:34.632Z,80.18
2019-04-05T18:05:09.516Z,80.34
2019-04-05T18:06:44.165Z,80.54
2019-04-05T18:08:18.803Z,80.16
2019-04-05T18:09:53.754Z,80.36
2019-04-05T18:11:28.384Z,80.53
2019-04-05T18:13:05.626Z,80.06
2019-04-05T18:14:40.272Z,79.95
2019-04-05T18:16:14.938Z,80.90
2019-04-05T18:17:49.587Z,81.20
2019-04-05T18:19:24.262Z,80.87
2019-04-05T18:20:58.970Z,80.84
2019-04-05T18:22:33.631Z,81.30
2019-04-05T18:24:08.282Z,80.96
2019-04-05T18:25:42.957Z,80.68
2019-04-05T18:27:17.660Z,81.03
2019-04-05T18:28:52.323Z,81.95
2019-04-05T18:30:26.969Z,81.22
2019-04-05T18:32:01.711Z,80.63
2019-04-05T18:33:37.328Z,81.32
2019-04-05T18:35:12.191Z,80.79
2019-04-05T18:36:46.978Z,80.47
2019-04-05T18:38:21.790Z,81.42
2019-04-05T18:39:57.714Z,81.50
2019-04-05T18:41:32.415Z,81.39
2019-04-05T18:43:08.299Z,81.02
2019-04-05T18:44:42.937Z,81.30
2019-04-05T18:46:17.579Z,81.54
2019-04-05T18:47:52.269Z,81.99
2019-04-05T18:49:26.922Z,81.24
2019-04-05T18:51:01.569Z,80.62
2019-04-05T18:52:36.227Z,81.07
2019-04-05T18:54:10.871Z,81.33
2019-04-05T18:55:45.506Z,81.46
2019-04-05T18:57:21.127Z,81.25
2019-04-05T18:58:55.768Z,81.41
2019-04-05T19:00:31.369Z,82.46
2019-04-05T19:02:06.117Z,82.32
2019-04-05T19:03:40.739Z,82.21
2019-04-05T19:05:15.561Z,82.37
2019-04-05T19:06:50.199Z,82.70
2019-04-05T19:08:24.822Z,82.17
2019-04-05T19:09:59.470Z,82.16
2019-04-05T19:11:35.304Z,81.32
2019-04-05T19:13:09.948Z,81.29
2019-04-05T19:14:44.578Z,82.62
2019-04-05T19:16:19.232Z,82.96
2019-04-05T19:17:53.886Z,82.16
2019-04-05T19:19:29.661Z,81.31
2019-04-05T19:21:04.326Z,82.01
2019-04-05T19:22:38.974Z,81.17
2019-04-05T19:24:13.599Z,80.61
2019-04-05T19:25:48.229Z,81.21
2019-04-05T19:27:22.877Z,81.59
2019-04-05T19:28:57.526Z,81.88
2019-04-05T19:49:50.010Z,82.89
2019-04-05T19:51:24.688Z,83.29
2019-04-05T19:53:00.692Z,83.55
2019-04-05T19:54:35.374Z,83.19
2019-04-05T19:56:10.010Z,83.71
2019-04-05T19:57:44.791Z,83.86
2019-04-05T19:59:19.455Z,83.98
2019-04-05T20:00:54.168Z,84.08
2019-04-05T20:02:28.815Z,83.85
2019-04-05T20:04:03.518Z,84.13
2019-04-05T20:05:38.204Z,84.06
2019-04-05T20:07:12.873Z,84.09
2019-04-05T20:08:47.523Z,83.68
2019-04-05T20:10:22.203Z,83.91
2019-04-05T20:11:56.904Z,84.06
2019-04-05T20:13:31.546Z,84.59
2019-04-05T20:15:07.040Z,85.04
2019-04-05T20:16:41.687Z,84.65
2019-04-05T20:18:16.399Z,85.34
2019-04-05T20:19:51.060Z,85.32
2019-04-05T20:21:25.774Z,85.94
2019-04-05T20:23:00.422Z,86.23
2019-04-05T20:24:35.063Z,86.15
2019-04-05T20:26:13.564Z,86.17
2019-04-05T20:27:48.211Z,85.96
2019-04-05T20:29:22.910Z,86.76
2019-04-05T20:30:57.751Z,86.32
2019-04-05T20:32:32.387Z,86.92
2019-04-05T20:34:07.127Z,86.90
2019-04-05T20:35:41.841Z,86.79
2019-04-05T20:37:16.632Z,86.65
2019-04-05T20:38:51.279Z,87.30
2019-04-05T20:40:25.955Z,88.09
2019-04-05T20:42:00.603Z,88.22
2019-04-05T20:43:35.247Z,87.52
2019-04-05T20:45:10.265Z,87.47
2019-04-05T20:46:44.921Z,87.28
2019-04-05T20:48:19.553Z,87.65
2019-04-05T20:49:54.196Z,87.16
2019-04-05T20:51:28.851Z,87.55
2019-04-05T20:53:03.518Z,87.46
2019-04-05T20:54:38.163Z,86.97
2019-04-05T20:56:13.124Z,86.88
2019-04-05T20:57:47.838Z,87.08
2019-04-05T20:59:22.500Z,86.87
2019-04-05T21:00:59.303Z,86.48